createdAt,value
2019-05-10T00:00:44.397Z,99.99
2019-05-10T00:01:44.422Z,99.99
2019-05-10T00:02:44.486Z,99.99
2019-05-10T00:03:44.513Z,99.99
2019-05-10T00:04:44.595Z,99.99
2019-05-10T00:05:44.593Z,99.99
2019-05-10T00:06:44.648Z,99.99
2019-05-10T00:07:44.691Z,99.99
2019-05-10T00:08:44.735Z,99.99
2019-05-10T00:09:44.809Z,99.99
2019-05-10T00:10:44.846Z,99.99
2019-05-10T00:11:48.615Z,99.99
2019-05-10T00:12:45.028Z,99.99
2019-05-10T00:13:44.974Z,99.99
2019-05-10T00:14:45.017Z,99.99
2019-05-10T00:15:45.090Z,99.99
2019-05-10T00:16:45.117Z,99.99
2019-05-10T00:17:45.160Z,99.99
2019-05-10T00:18:45.215Z,99.99
2019-05-10T00:19:45.360Z,99.99
2019-05-10T00:20:45.323Z,99.99
2019-05-10T00:21:45.344Z,99.99
2019-05-10T00:22:45.392Z,99.99
2019-05-10T00:23:45.441Z,99.99
2019-05-10T00:25:00.799Z,99.99
2019-05-10T00:25:45.558Z,99.99
2019-05-10T00:26:45.608Z,99.99
2019-05-10T00:27:45.634Z,99.99
2019-05-10T00:28:45.675Z,99.99
2019-05-10T00:29:45.726Z,99.99
2019-05-10T00:30:45.790Z,99.99
2019-05-10T00:31:45.816Z,99.99
2019-05-10T00:32:45.865Z,99.99
2019-05-10T00:33:45.959Z,99.99
2019-05-10T00:34:45.959Z,99.99
2019-05-10T00:35:46.028Z,99.99
2019-05-10T00:36:46.054Z,99.99
2019-05-10T00:37:46.122Z,99.99
2019-05-10T00:38:46.145Z,99.99
2019-05-10T00:39:46.193Z,99.99
2019-05-10T00:40:46.294Z,99.99
2019-05-10T00:41:46.289Z,99.99
2019-05-10T00:42:46.332Z,99.99
2019-05-10T00:43:46.388Z,99.99
2019-05-10T00:44:46.430Z,99.99
2019-05-10T00:45:46.502Z,99.99
2019-05-10T00:46:46.593Z,99.99
2019-05-10T00:47:46.589Z,99.99
2019-05-10T00:48:46.616Z,99.99
2019-05-10T00:49:46.692Z,99.99
2019-05-10T00:50:46.735Z,99.99
2019-05-10T00:51:46.783Z,99.99
2019-05-10T00:52:46.805Z,99.99
2019-05-10T00:53:46.853Z,99.99
2019-05-10T00:54:46.899Z,99.99
2019-05-10T00:55:46.947Z,99.99
2019-05-10T00:56:47.019Z,99.99
2019-05-10T00:57:47.064Z,99.99
2019-05-10T00:58:47.090Z,99.99
2019-05-10T00:59:47.139Z,99.99
2019-05-10T01:00:47.201Z,99.99
2019-05-10T01:01:47.249Z,99.99
2019-05-10T01:02:47.284Z,99.99
2019-05-10T01:03:47.324Z,99.99
2019-05-10T01:04:47.379Z,99.99
2019-05-10T01:05:47.415Z,99.99
2019-05-10T01:06:47.483Z,99.99
2019-05-10T01:07:47.512Z,99.99
2019-05-10T01:08:47.558Z,99.99
2019-05-10T01:09:47.614Z,99.99
2019-05-10T01:10:47.653Z,99.99
2019-05-10T01:11:47.716Z,99.99
2019-05-10T01:12:47.746Z,99.99
2019-05-10T01:13:47.792Z,99.99
2019-05-10T01:14:47.840Z,99.99
2019-05-10T01:15:47.955Z,99.99
2019-05-10T01:16:47.956Z,99.99
2019-05-10T01:17:47.988Z,99.99
2019-05-10T01:18:48.055Z,99.99
2019-05-10T01:19:48.075Z,99.99
2019-05-10T01:20:48.128Z,99.99
2019-05-10T01:21:48.230Z,99.99
2019-05-10T01:22:48.223Z,99.99
2019-05-10T01:23:48.265Z,99.99
2019-05-10T01:24:48.317Z,99.99
2019-05-10T01:25:48.392Z,99.99
2019-05-10T01:26:48.429Z,99.99
2019-05-10T01:27:48.454Z,99.99
2019-05-10T01:28:48.553Z,99.99
2019-05-10T01:29:48.550Z,99.99
2019-05-10T01:30:48.594Z,99.99
2019-05-10T01:31:48.658Z,99.99
2019-05-10T01:32:48.712Z,99.99
2019-05-10T01:33:48.742Z,99.99
2019-05-10T01:34:48.787Z,99.99
2019-05-10T01:35:48.834Z,99.99
2019-05-10T01:36:48.875Z,99.99
2019-05-10T01:37:48.939Z,99.99
2019-05-10T01:38:48.967Z,99.99
2019-05-10T01:39:49.024Z,99.99
2019-05-10T01:40:49.064Z,99.99
2019-05-10T01:41:49.116Z,99.99
2019-05-10T01:42:49.171Z,99.99
2019-05-10T01:43:49.206Z,99.99
2019-05-10T01:44:49.250Z,99.99
2019-05-10T01:45:49.297Z,99.99
2019-05-10T01:46:49.345Z,99.99
2019-05-10T01:47:49.416Z,99.99
2019-05-10T01:48:49.459Z,99.99
2019-05-10T01:49:49.486Z,99.99
2019-05-10T01:50:49.533Z,99.99
2019-05-10T01:51:49.589Z,99.99
2019-05-10T01:52:49.650Z,99.99
2019-05-10T01:53:49.670Z,99.99
2019-05-10T01:54:49.722Z,99.99
2019-05-10T01:55:52.602Z,99.99
2019-05-10T01:56:49.812Z,99.99
2019-05-10T01:57:49.878Z,99.99
2019-05-10T01:58:49.911Z,99.99
2019-05-10T01:59:49.964Z,99.99
2019-05-10T02:00:50.001Z,99.99
2019-05-10T02:01:50.049Z,99.99
2019-05-10T02:02:50.248Z,99.99
2019-05-10T02:03:50.142Z,99.99
2019-05-10T02:04:50.191Z,99.99
2019-05-10T02:05:50.236Z,99.99
2019-05-10T02:06:50.300Z,99.99
2019-05-10T02:07:50.362Z,99.99
2019-05-10T02:08:50.377Z,99.99
2019-05-10T02:09:50.475Z,99.99
2019-05-10T02:10:50.472Z,99.99
2019-05-10T02:11:50.526Z,99.99
2019-05-10T02:12:50.582Z,99.99
2019-05-10T02:13:50.638Z,99.99
2019-05-10T02:14:50.656Z,99.99
2019-05-10T02:15:50.703Z,99.99
2019-05-10T02:16:50.804Z,99.99
2019-05-10T02:17:50.797Z,99.99
2019-05-10T02:18:50.868Z,99.99
2019-05-10T02:19:50.890Z,99.99
2019-05-10T02:20:51.064Z,99.99
2019-05-10T02:21:50.991Z,99.99
2019-05-10T02:22:51.039Z,99.99
2019-05-10T02:23:51.102Z,99.99
2019-05-10T02:24:51.126Z,99.99
2019-05-10T02:26:07.239Z,99.99
2019-05-10T02:26:51.219Z,99.99
2019-05-10T02:27:51.384Z,99.99
2019-05-10T02:28:51.336Z,99.99
2019-05-10T02:29:51.358Z,99.99
2019-05-10T02:30:51.415Z,99.99
2019-05-10T02:31:51.454Z,99.99
2019-05-10T02:32:51.503Z,99.99
2019-05-10T02:33:51.580Z,99.99
2019-05-10T02:34:51.698Z,99.99
2019-05-10T02:35:51.645Z,99.99
2019-05-10T02:36:51.692Z,99.99
2019-05-10T02:37:51.741Z,99.99
2019-05-10T02:38:51.792Z,99.99
2019-05-10T02:39:51.858Z,99.99
2019-05-10T02:40:51.913Z,99.99
2019-05-10T02:41:52.019Z,99.99
2019-05-10T02:42:51.979Z,99.99
2019-05-10T02:43:52.019Z,99.99
2019-05-10T02:44:52.087Z,99.99
2019-05-10T02:45:52.111Z,99.99
2019-05-10T02:46:52.156Z,99.99
2019-05-10T02:47:52.228Z,99.99
2019-05-10T02:48:52.305Z,99.99
2019-05-10T02:49:52.322Z,99.99
2019-05-10T02:50:52.343Z,99.99
2019-05-10T02:51:52.396Z,99.99
2019-05-10T02:52:52.439Z,99.99
2019-05-10T02:53:52.493Z,99.99
2019-05-10T02:54:52.568Z,99.99
2019-05-10T02:55:52.590Z,99.99
2019-05-10T02:56:52.625Z,99.99
2019-05-10T02:57:52.745Z,99.99
2019-05-10T02:58:52.726Z,99.99
2019-05-10T02:59:52.784Z,99.99
2019-05-10T03:00:52.862Z,99.99
2019-05-10T03:01:52.866Z,99.99
2019-05-10T03:02:52.911Z,99.99
2019-05-10T03:03:52.957Z,99.99
2019-05-10T03:04:53.052Z,99.99
2019-05-10T03:05:53.065Z,99.99
2019-05-10T03:06:53.096Z,99.99
2019-05-10T03:07:53.139Z,99.99
2019-05-10T03:08:53.198Z,99.99
2019-05-10T03:09:53.235Z,99.99
2019-05-10T03:10:53.304Z,99.99
2019-05-10T03:11:53.359Z,99.99
2019-05-10T03:12:53.371Z,99.99
2019-05-10T03:13:53.419Z,99.99
2019-05-10T03:14:53.470Z,99.99
2019-05-10T03:15:53.528Z,99.99
2019-05-10T03:16:53.572Z,99.99
2019-05-10T03:17:53.599Z,99.99
2019-05-10T03:18:53.705Z,99.99
2019-05-10T03:19:53.706Z,99.99
2019-05-10T03:20:53.763Z,99.99
2019-05-10T03:21:53.785Z,99.99
2019-05-10T03:22:53.862Z,99.99
2019-05-10T03:23:53.882Z,99.99
2019-05-10T03:24:53.939Z,99.99
2019-05-10T03:25:53.992Z,99.99
2019-05-10T03:26:54.023Z,99.99
2019-05-10T03:27:54.062Z,99.99
2019-05-10T03:28:54.111Z,99.99
2019-05-10T03:29:54.184Z,99.99
2019-05-10T03:30:54.224Z,99.99
2019-05-10T03:31:54.252Z,99.99
2019-05-10T03:32:54.309Z,99.99
2019-05-10T03:33:57.135Z,99.99
2019-05-10T03:34:54.389Z,99.99
2019-05-10T03:35:54.438Z,99.99
2019-05-10T03:36:54.495Z,99.99
2019-05-10T03:37:54.550Z,99.99
2019-05-10T03:38:54.606Z,99.99
2019-05-10T03:39:54.626Z,99.99
2019-05-10T03:40:54.674Z,99.99
2019-05-10T03:41:54.738Z,99.99
2019-05-10T03:42:54.764Z,99.99
2019-05-10T03:43:54.815Z,99.99
2019-05-10T03:44:54.851Z,99.99
2019-05-10T03:45:54.895Z,99.99
2019-05-10T03:46:54.959Z,99.99
2019-05-10T03:47:54.989Z,99.99
2019-05-10T03:48:55.032Z,99.99
2019-05-10T03:49:55.082Z,99.99
2019-05-10T03:50:55.126Z,99.99
2019-05-10T03:51:55.206Z,99.99
2019-05-10T03:52:55.220Z,99.99
2019-05-10T03:53:55.260Z,99.99
2019-05-10T03:54:55.358Z,99.99
2019-05-10T03:55:55.393Z,99.99
2019-05-10T03:57:11.861Z,99.99
2019-05-10T03:57:55.444Z,99.99
2019-05-10T03:58:55.505Z,99.99
2019-05-10T03:59:55.608Z,99.99
2019-05-10T04:00:55.598Z,99.99
2019-05-10T04:01:55.704Z,99.99
2019-05-10T04:02:55.678Z,99.99
2019-05-10T04:03:55.723Z,99.99
2019-05-10T04:04:55.776Z,99.99
2019-05-10T04:05:55.823Z,99.99
2019-05-10T04:06:55.879Z,99.99
2019-05-10T04:07:55.930Z,99.99
2019-05-10T04:08:55.953Z,99.99
2019-05-10T04:09:55.999Z,99.99
2019-05-10T04:10:56.048Z,99.99
2019-05-10T04:11:56.091Z,99.99
2019-05-10T04:12:56.155Z,99.99
2019-05-10T04:13:56.190Z,99.99
2019-05-10T04:14:56.229Z,99.99
2019-05-10T04:15:56.274Z,99.99
2019-05-10T04:16:56.338Z,99.99
2019-05-10T04:17:56.393Z,99.99
2019-05-10T04:18:56.419Z,99.99
2019-05-10T04:19:56.465Z,99.99
2019-05-10T04:20:56.515Z,99.99
2019-05-10T04:21:56.572Z,99.99
2019-05-10T04:22:56.672Z,99.99
2019-05-10T04:23:56.654Z,99.99
2019-05-10T04:24:56.705Z,99.99
2019-05-10T04:25:56.734Z,99.99
2019-05-10T04:26:56.781Z,99.99
2019-05-10T04:27:56.848Z,99.99
2019-05-10T04:28:56.881Z,99.99
2019-05-10T04:29:56.922Z,99.99
2019-05-10T04:30:56.970Z,99.99
2019-05-10T04:31:57.013Z,99.99
2019-05-10T04:32:57.089Z,99.99
2019-05-10T04:33:57.105Z,99.99
2019-05-10T04:34:57.176Z,99.99
2019-05-10T04:35:57.211Z,99.99
2019-05-10T04:36:57.254Z,99.99
2019-05-10T04:37:57.313Z,99.99
2019-05-10T04:38:57.348Z,99.99
2019-05-10T04:39:57.378Z,99.99
2019-05-10T04:40:57.430Z,99.99
2019-05-10T04:41:57.473Z,99.99
2019-05-10T04:42:57.628Z,99.99
2019-05-10T04:43:57.579Z,99.99
2019-05-10T04:44:57.610Z,99.99
2019-05-10T04:45:57.657Z,99.99
2019-05-10T04:46:57.700Z,99.99
2019-05-10T04:47:57.756Z,99.99
2019-05-10T04:48:57.815Z,99.99
2019-05-10T04:49:57.937Z,99.99
2019-05-10T04:50:57.897Z,99.99
2019-05-10T04:51:57.952Z,99.99
2019-05-10T04:52:57.994Z,99.99
2019-05-10T04:53:58.046Z,99.99
2019-05-10T04:54:58.074Z,99.99
2019-05-10T04:55:58.129Z,99.99
2019-05-10T04:57:00.214Z,99.99
2019-05-10T04:57:58.214Z,99.99
2019-05-10T04:58:58.276Z,99.99
2019-05-10T04:59:58.305Z,99.99
2019-05-10T05:00:58.357Z,99.99
2019-05-10T05:01:58.394Z,99.99
2019-05-10T05:02:58.440Z,99.99
2019-05-10T05:03:58.513Z,99.99
2019-05-10T05:04:58.545Z,99.99
2019-05-10T05:05:58.591Z,99.99
2019-05-10T05:06:58.627Z,99.99
2019-05-10T05:07:58.675Z,99.99
2019-05-10T05:08:58.745Z,99.99
2019-05-10T05:09:58.764Z,99.99
2019-05-10T05:10:58.817Z,99.99
2019-05-10T05:11:58.859Z,99.99
2019-05-10T05:12:58.906Z,99.99
2019-05-10T05:13:58.987Z,99.99
2019-05-10T05:14:59.010Z,99.99
2019-05-10T05:15:59.056Z,99.99
2019-05-10T05:16:59.101Z,99.99
2019-05-10T05:17:59.136Z,99.99
2019-05-10T05:18:59.208Z,99.99
2019-05-10T05:19:59.247Z,99.99
2019-05-10T05:20:59.279Z,99.99
2019-05-10T05:21:59.324Z,99.99
2019-05-10T05:22:59.376Z,99.99
2019-05-10T05:23:59.438Z,99.99
2019-05-10T05:25:01.313Z,99.99
2019-05-10T05:25:59.526Z,99.99
2019-05-10T05:26:59.564Z,99.99
2019-05-10T05:28:08.126Z,99.99
2019-05-10T05:28:59.668Z,99.99
2019-05-10T05:29:59.719Z,99.99
2019-05-10T05:30:59.748Z,99.99
2019-05-10T05:32:01.170Z,99.99
2019-05-10T05:32:59.867Z,99.99
2019-05-10T05:34:04.868Z,99.99
2019-05-10T05:34:59.961Z,99.99
2019-05-10T05:36:02.184Z,99.99
2019-05-10T05:37:00.021Z,99.99
2019-05-10T05:38:00.126Z,99.99
2019-05-10T05:39:00.122Z,99.99
2019-05-10T05:40:00.184Z,99.99
2019-05-10T05:41:00.215Z,99.99
2019-05-10T05:42:00.260Z,99.99
2019-05-10T05:43:02.691Z,99.99
2019-05-10T05:44:00.346Z,99.99
2019-05-10T05:45:00.410Z,99.99
2019-05-10T05:46:00.435Z,99.99
2019-05-10T05:47:04.226Z,99.99
2019-05-10T05:48:00.532Z,99.99
2019-05-10T05:49:00.579Z,99.99
2019-05-10T05:50:00.644Z,99.99
2019-05-10T05:51:00.674Z,99.99
2019-05-10T05:52:00.790Z,99.99
2019-05-10T05:53:00.766Z,99.99
2019-05-10T05:54:03.934Z,99.99
2019-05-10T05:55:00.875Z,99.99
2019-05-10T05:56:03.655Z,99.99
2019-05-10T05:57:00.965Z,99.99
2019-05-10T05:58:04.857Z,99.99
2019-05-10T05:59:01.045Z,99.99
2019-05-10T06:00:04.212Z,99.99
2019-05-10T06:01:01.158Z,99.99
2019-05-10T06:02:07.543Z,99.99
2019-05-10T06:03:01.226Z,99.99
2019-05-10T06:04:06.366Z,99.99
2019-05-10T06:05:01.327Z,99.99
2019-05-10T06:06:01.422Z,99.99
2019-05-10T06:07:01.418Z,99.99
2019-05-10T06:08:01.478Z,99.99
2019-05-10T06:09:01.686Z,99.99
2019-05-10T06:10:01.557Z,99.99
2019-05-10T06:11:01.635Z,99.99
2019-05-10T06:12:01.652Z,99.99
2019-05-10T06:13:01.697Z,99.99
2019-05-10T06:14:03.624Z,99.99
2019-05-10T06:15:01.801Z,99.99
2019-05-10T06:16:06.382Z,99.99
2019-05-10T06:17:01.896Z,99.99
2019-05-10T06:18:03.277Z,99.99
2019-05-10T06:19:01.972Z,99.99
2019-05-10T06:20:05.876Z,99.99
2019-05-10T06:21:02.092Z,99.99
2019-05-10T06:22:04.442Z,99.99
2019-05-10T06:23:06.836Z,99.99
2019-05-10T06:24:07.447Z,99.99
2019-05-10T06:25:02.261Z,99.99
2019-05-10T06:26:02.442Z,99.99
2019-05-10T06:27:03.564Z,99.99
2019-05-10T06:28:02.392Z,99.99
2019-05-10T06:29:04.596Z,99.99
2019-05-10T06:30:02.486Z,99.99
2019-05-10T06:31:02.551Z,99.99
2019-05-10T06:32:02.592Z,99.99
2019-05-10T06:33:12.121Z,99.99
2019-05-10T06:34:02.681Z,99.99
2019-05-10T06:35:02.737Z,99.99
2019-05-10T06:36:02.789Z,99.99
2019-05-10T06:37:02.848Z,99.99
2019-05-10T06:38:02.871Z,99.99
2019-05-10T06:39:02.922Z,99.99
2019-05-10T06:40:03.049Z,99.99
2019-05-10T06:41:03.036Z,99.99
2019-05-10T06:42:03.050Z,99.99
2019-05-10T06:43:06.937Z,99.99
2019-05-10T06:44:03.163Z,99.99
2019-05-10T06:45:05.072Z,99.99
2019-05-10T06:46:03.257Z,99.99
2019-05-10T06:47:08.205Z,99.99
2019-05-10T06:48:03.337Z,99.99
2019-05-10T06:49:08.389Z,99.99
2019-05-10T06:50:03.425Z,99.99
2019-05-10T06:51:09.580Z,99.99
2019-05-10T06:52:03.538Z,99.99
2019-05-10T06:53:07.859Z,99.99
2019-05-10T06:54:03.617Z,99.99
2019-05-10T06:55:04.046Z,99.99
2019-05-10T06:56:03.709Z,99.99
2019-05-10T06:57:03.778Z,99.99
2019-05-10T06:58:03.797Z,99.99
2019-05-10T06:59:13.110Z,99.99
2019-05-10T07:00:06.440Z,99.99
2019-05-10T07:01:03.944Z,99.99
2019-05-10T07:02:04.008Z,99.99
2019-05-10T07:03:04.055Z,99.99
2019-05-10T07:04:04.084Z,99.99
2019-05-10T07:05:04.137Z,99.99
2019-05-10T07:06:04.184Z,99.99
2019-05-10T07:07:10.267Z,99.99
2019-05-10T07:08:13.867Z,99.99
2019-05-10T07:09:04.332Z,99.99
2019-05-10T07:10:12.995Z,99.99
2019-05-10T07:11:04.416Z,99.99
2019-05-10T07:12:09.279Z,99.99
2019-05-10T07:13:06.721Z,99.99
2019-05-10T07:14:04.570Z,99.99
2019-05-10T07:15:05.476Z,99.99
2019-05-10T07:16:04.655Z,99.99
2019-05-10T07:17:04.709Z,99.99
2019-05-10T07:18:04.767Z,99.99
2019-05-10T07:19:04.856Z,99.99
2019-05-10T07:20:04.861Z,99.99
2019-05-10T07:21:06.898Z,99.99
2019-05-10T07:22:04.941Z,99.99
2019-05-10T07:23:05.969Z,99.99
2019-05-10T07:24:05.036Z,99.99
2019-05-10T07:25:07.418Z,99.99
2019-05-10T07:26:05.128Z,99.99
2019-05-10T07:27:05.803Z,99.99
2019-05-10T07:28:09.487Z,99.99
2019-05-10T07:29:05.272Z,99.99
2019-05-10T07:30:05.325Z,99.99
2019-05-10T07:31:05.370Z,99.99
2019-05-10T07:32:05.415Z,99.99
2019-05-10T07:33:05.548Z,99.99
2019-05-10T07:34:09.621Z,99.99
2019-05-10T07:35:05.565Z,99.99
2019-05-10T07:36:14.387Z,99.99
2019-05-10T07:37:05.679Z,99.99
2019-05-10T07:38:05.720Z,99.99
2019-05-10T07:39:08.567Z,99.99
2019-05-10T07:40:05.798Z,99.99
2019-05-10T07:41:05.841Z,99.99
2019-05-10T07:42:06.841Z,99.99
2019-05-10T07:43:05.966Z,99.99
2019-05-10T07:44:07.704Z,99.99
2019-05-10T07:45:06.051Z,99.99
2019-05-10T07:46:06.789Z,99.99
2019-05-10T07:47:06.130Z,99.99
2019-05-10T07:48:08.283Z,99.99
2019-05-10T07:49:06.242Z,99.99
2019-05-10T07:50:09.780Z,99.99
2019-05-10T07:51:06.322Z,99.99
2019-05-10T07:52:06.367Z,99.99
2019-05-10T07:53:06.417Z,99.99
2019-05-10T07:54:06.643Z,99.99
2019-05-10T07:55:09.922Z,99.99
2019-05-10T07:56:07.865Z,99.99
2019-05-10T07:57:06.604Z,99.99
2019-05-10T07:58:07.103Z,99.99
2019-05-10T07:59:06.718Z,99.99
2019-05-10T08:00:06.743Z,99.99
2019-05-10T08:01:06.791Z,99.99
2019-05-10T08:02:12.844Z,99.99
2019-05-10T08:03:15.764Z,99.99
2019-05-10T08:04:08.823Z,99.99
2019-05-10T08:05:10.898Z,99.99
2019-05-10T08:06:08.366Z,99.99
2019-05-10T08:07:09.810Z,99.99
2019-05-10T08:08:09.408Z,99.99
2019-05-10T08:09:09.648Z,99.99
2019-05-10T08:10:08.749Z,99.99
2019-05-10T08:11:08.558Z,99.99
2019-05-10T08:12:12.566Z,99.99
2019-05-10T08:13:08.467Z,99.99
2019-05-10T08:14:11.002Z,99.99
2019-05-10T08:15:08.580Z,99.99
2019-05-10T08:16:11.847Z,99.99
2019-05-10T08:17:09.088Z,99.99
2019-05-10T08:18:09.657Z,99.99
2019-05-10T08:19:07.647Z,99.99
2019-05-10T08:20:09.059Z,99.99
2019-05-10T08:21:20.450Z,99.99
2019-05-10T08:22:09.350Z,99.99
2019-05-10T08:23:07.882Z,99.99
2019-05-10T08:24:13.627Z,99.99
2019-05-10T08:25:07.953Z,99.99
2019-05-10T08:26:14.798Z,99.99
2019-05-10T08:27:13.986Z,99.99
2019-05-10T08:28:08.079Z,99.99
2019-05-10T08:29:12.737Z,99.99
2019-05-10T08:30:22.751Z,99.99
2019-05-10T08:31:08.237Z,99.99
2019-05-10T08:32:08.275Z,99.99
2019-05-10T08:33:09.604Z,99.99
2019-05-10T08:34:08.373Z,99.99
2019-05-10T08:35:16.394Z,99.99
2019-05-10T08:36:08.477Z,99.99
2019-05-10T08:37:08.595Z,99.99
2019-05-10T08:38:08.552Z,99.99
2019-05-10T08:39:11.006Z,99.99
2019-05-10T08:40:08.648Z,99.99
2019-05-10T08:41:14.753Z,99.99
2019-05-10T08:42:27.342Z,99.99
2019-05-10T08:43:12.712Z,99.99
2019-05-10T08:44:16.754Z,99.99
2019-05-10T08:45:09.136Z,99.99
2019-05-10T08:46:08.969Z,99.99
2019-05-10T08:47:16.204Z,99.99
2019-05-10T08:48:09.030Z,99.99
2019-05-10T08:49:09.090Z,99.99
2019-05-10T08:50:22.431Z,99.99
2019-05-10T08:51:09.198Z,99.99
2019-05-10T08:52:09.227Z,99.99
2019-05-10T08:53:11.157Z,99.99
2019-05-10T08:54:09.331Z,99.99
2019-05-10T08:55:12.098Z,99.99
2019-05-10T08:56:15.909Z,99.99
2019-05-10T08:57:12.047Z,99.99
2019-05-10T08:58:09.530Z,99.99
2019-05-10T08:59:14.973Z,99.99
2019-05-10T09:00:09.623Z,99.99
2019-05-10T09:01:20.500Z,99.99
2019-05-10T09:02:09.749Z,99.99
2019-05-10T09:03:15.660Z,99.99
2019-05-10T09:04:13.218Z,99.99
2019-05-10T09:05:12.256Z,99.99
2019-05-10T09:06:15.894Z,99.99
2019-05-10T09:07:11.906Z,99.99
2019-05-10T09:08:13.577Z,99.99
2019-05-10T09:09:12.366Z,99.99
2019-05-10T09:10:12.562Z,99.99
2019-05-10T09:11:10.152Z,99.99
2019-05-10T09:12:12.280Z,99.99
2019-05-10T09:13:12.650Z,99.99
2019-05-10T09:14:12.237Z,99.99
2019-05-10T09:15:13.162Z,99.99
2019-05-10T09:16:10.403Z,99.99
2019-05-10T09:17:14.730Z,99.99
2019-05-10T09:18:12.599Z,99.99
2019-05-10T09:19:12.422Z,99.99
2019-05-10T09:20:14.038Z,99.99
2019-05-10T09:21:13.975Z,99.99
2019-05-10T09:22:12.481Z,99.99
2019-05-10T09:23:15.262Z,99.99
2019-05-10T09:24:12.697Z,99.99
2019-05-10T09:25:12.826Z,99.99
2019-05-10T09:26:16.257Z,99.99
2019-05-10T09:27:12.849Z,99.99
2019-05-10T09:28:16.454Z,99.99
2019-05-10T09:29:12.169Z,99.99
2019-05-10T09:30:14.139Z,99.99
2019-05-10T09:31:18.741Z,99.99
2019-05-10T09:32:12.532Z,99.99
2019-05-10T09:33:14.483Z,99.99
2019-05-10T09:34:12.254Z,99.99
2019-05-10T09:35:12.743Z,99.99
2019-05-10T09:36:12.509Z,99.99
2019-05-10T09:37:16.045Z,99.99
2019-05-10T09:38:12.475Z,99.99
2019-05-10T09:39:17.568Z,99.99
2019-05-10T09:40:13.331Z,99.99
2019-05-10T09:41:11.940Z,99.99
2019-05-10T09:42:25.165Z,99.99
2019-05-10T09:43:12.436Z,99.99
2019-05-10T09:44:13.041Z,99.99
2019-05-10T09:45:12.918Z,99.99
2019-05-10T09:46:14.043Z,99.99
2019-05-10T09:47:12.116Z,99.99
2019-05-10T09:48:12.298Z,99.99
2019-05-10T09:49:18.069Z,99.99
2019-05-10T09:50:12.631Z,99.99
2019-05-10T09:51:13.733Z,99.99
2019-05-10T09:52:13.390Z,99.99
2019-05-10T09:53:13.550Z,99.99
2019-05-10T09:54:12.372Z,99.99
2019-05-10T09:55:14.737Z,99.99
2019-05-10T09:56:12.361Z,99.99
2019-05-10T09:57:12.415Z,99.99
2019-05-10T09:58:12.512Z,99.99
2019-05-10T09:59:12.504Z,99.99
2019-05-10T10:00:12.560Z,99.99
2019-05-10T10:01:17.990Z,99.99
2019-05-10T10:02:18.254Z,99.99
2019-05-10T10:03:13.123Z,99.99
2019-05-10T10:04:12.750Z,99.99
2019-05-10T10:05:12.804Z,99.99
2019-05-10T10:06:12.855Z,99.99
2019-05-10T10:07:12.901Z,99.99
2019-05-10T10:08:12.999Z,99.99
2019-05-10T10:09:12.995Z,99.99
2019-05-10T10:10:17.867Z,99.99
2019-05-10T10:11:15.829Z,99.99
2019-05-10T10:12:13.140Z,99.99
2019-05-10T10:13:14.080Z,99.19
2019-05-10T10:14:13.245Z,98.90
2019-05-10T10:15:18.709Z,98.13
2019-05-10T10:16:14.959Z,97.37
2019-05-10T10:17:13.383Z,96.03
2019-05-10T10:18:21.410Z,98.42
2019-05-10T10:19:13.610Z,97.56
2019-05-10T10:20:13.536Z,96.03
2019-05-10T10:21:18.129Z,99.99
2019-05-10T10:22:13.630Z,99.99
2019-05-10T10:23:13.726Z,99.71
2019-05-10T10:24:17.243Z,98.75
2019-05-10T10:25:13.777Z,99.99
2019-05-10T10:26:18.591Z,99.85
2019-05-10T10:27:13.877Z,99.99
2019-05-10T10:28:18.868Z,99.19
2019-05-10T10:29:14.019Z,99.99
2019-05-10T10:30:19.011Z,99.99
2019-05-10T10:31:26.220Z,99.99
2019-05-10T10:32:14.121Z,99.99
2019-05-10T10:33:20.922Z,99.99
2019-05-10T10:34:14.243Z,99.99
2019-05-10T10:35:21.019Z,99.99
2019-05-10T10:36:14.327Z,99.00
2019-05-10T10:37:14.657Z,99.99
2019-05-10T10:38:14.423Z,98.19
2019-05-10T10:39:16.872Z,98.76
2019-05-10T10:40:17.703Z,97.80
2019-05-10T10:41:19.227Z,97.85
2019-05-10T10:42:14.616Z,99.10
2019-05-10T10:43:14.664Z,96.08
2019-05-10T10:44:14.740Z,96.51
2019-05-10T10:45:17.232Z,95.56
2019-05-10T10:46:17.595Z,94.17
2019-05-10T10:47:14.865Z,94.79
2019-05-10T10:48:14.926Z,94.79
2019-05-10T10:49:17.285Z,93.74
2019-05-10T10:50:17.086Z,93.30
2019-05-10T10:51:15.069Z,92.54
2019-05-10T10:52:17.121Z,93.78
2019-05-10T10:53:17.795Z,96.89
2019-05-10T10:54:17.458Z,94.40
2019-05-10T10:55:15.298Z,89.76
2019-05-10T10:56:17.461Z,90.09
2019-05-10T10:57:17.900Z,90.19
2019-05-10T10:58:18.206Z,90.86
2019-05-10T10:59:15.476Z,92.01
2019-05-10T11:00:20.224Z,90.86
2019-05-10T11:01:21.701Z,93.40
2019-05-10T11:02:31.500Z,90.62
2019-05-10T11:03:15.673Z,88.90
2019-05-10T11:04:16.355Z,90.53
2019-05-10T11:05:15.792Z,87.32
2019-05-10T11:06:15.832Z,88.99
2019-05-10T11:07:15.909Z,87.80
2019-05-10T11:08:15.926Z,88.13
2019-05-10T11:09:16.020Z,90.19
2019-05-10T11:10:18.926Z,88.47
2019-05-10T11:11:16.092Z,90.29
2019-05-10T11:12:20.795Z,88.99
2019-05-10T11:13:23.811Z,87.41
2019-05-10T11:14:16.243Z,86.74
2019-05-10T11:15:21.774Z,86.54
2019-05-10T11:16:16.381Z,89.99
2019-05-10T11:17:16.395Z,86.72
2019-05-10T11:18:16.438Z,85.10
2019-05-10T11:19:16.490Z,88.07
2019-05-10T11:20:16.544Z,88.11
2019-05-10T11:21:16.616Z,86.87
2019-05-10T11:22:16.649Z,83.65
2019-05-10T11:23:16.741Z,83.38
2019-05-10T11:24:20.048Z,86.08
2019-05-10T11:25:16.807Z,88.04
2019-05-10T11:26:16.849Z,88.52
2019-05-10T11:27:17.420Z,91.44
2019-05-10T11:28:16.973Z,92.97
2019-05-10T11:29:25.322Z,92.97
2019-05-10T11:30:17.053Z,94.60
2019-05-10T11:31:17.141Z,97.38
2019-05-10T11:32:17.258Z,99.99
2019-05-10T11:33:27.178Z,99.99
2019-05-10T11:34:17.270Z,99.99
2019-05-10T11:35:24.015Z,99.99
2019-05-10T11:36:17.391Z,99.99
2019-05-10T11:37:18.453Z,99.99
2019-05-10T11:38:17.467Z,99.99
2019-05-10T11:39:26.123Z,99.99
2019-05-10T11:40:24.546Z,99.99
2019-05-10T11:41:23.676Z,99.99
2019-05-10T11:42:17.660Z,99.99
2019-05-10T11:43:23.977Z,99.99
2019-05-10T11:44:17.761Z,99.99
2019-05-10T11:45:17.814Z,99.99
2019-05-10T11:46:17.887Z,99.99
2019-05-10T11:47:24.103Z,99.99
2019-05-10T11:48:18.003Z,99.99
2019-05-10T11:49:20.313Z,99.99
2019-05-10T11:50:28.686Z,99.99
2019-05-10T11:51:18.138Z,99.99
2019-05-10T11:52:18.161Z,99.99
2019-05-10T11:53:20.880Z,99.99
2019-05-10T11:54:18.276Z,99.99
2019-05-10T11:55:18.346Z,99.99
2019-05-10T11:56:24.006Z,99.99
2019-05-10T11:57:18.415Z,99.99
2019-05-10T11:58:18.460Z,99.99
2019-05-10T11:59:21.642Z,99.99
2019-05-10T12:00:25.609Z,99.99
2019-05-10T12:02:35.380Z,99.99
2019-05-10T12:03:23.147Z,99.99
2019-05-10T12:04:28.802Z,99.99
2019-05-10T12:05:22.790Z,99.99
2019-05-10T12:06:21.241Z,99.99
2019-05-10T12:08:18.986Z,99.44
2019-05-10T12:09:21.299Z,99.99
2019-05-10T12:10:24.843Z,99.99
2019-05-10T12:11:29.230Z,99.99
2019-05-10T12:12:30.658Z,99.99
2019-05-10T12:13:24.375Z,99.99
2019-05-10T12:14:21.747Z,99.99
2019-05-10T12:15:25.124Z,99.99
2019-05-10T12:16:21.474Z,99.99
2019-05-10T12:17:23.706Z,99.99
2019-05-10T12:18:26.317Z,99.99
2019-05-10T12:19:21.152Z,99.99
2019-05-10T12:20:30.255Z,99.99
2019-05-10T12:21:21.792Z,99.99
2019-05-10T12:22:21.764Z,99.99
2019-05-10T12:23:30.216Z,99.82
2019-05-10T12:24:33.422Z,95.60
2019-05-10T12:25:39.889Z,97.38
2019-05-10T12:26:05.084Z,98.86
2019-05-10T12:26:18.428Z,99.99
2019-05-10T12:27:28.542Z,97.52
2019-05-10T12:28:24.608Z,97.52
2019-05-10T12:29:21.256Z,99.99
2019-05-10T12:30:21.495Z,99.99
2019-05-10T12:31:21.030Z,99.99
2019-05-10T12:32:21.336Z,96.56
2019-05-10T12:33:24.907Z,96.27
2019-05-10T12:34:20.751Z,97.80
2019-05-10T12:35:21.277Z,98.95
2019-05-10T12:36:25.654Z,99.43
2019-05-10T12:37:20.456Z,99.99
2019-05-10T12:38:23.663Z,99.99
2019-05-10T12:39:21.411Z,99.99
2019-05-10T12:40:23.818Z,98.81
2019-05-10T12:41:23.216Z,99.99
2019-05-10T12:42:21.785Z,99.99
2019-05-10T12:43:21.208Z,99.99
2019-05-10T12:44:20.825Z,99.99
2019-05-10T12:45:23.263Z,96.80
2019-05-10T12:46:20.907Z,95.98
2019-05-10T12:47:21.411Z,96.08
2019-05-10T12:48:23.141Z,98.38
2019-05-10T12:49:21.533Z,98.47
2019-05-10T12:50:21.110Z,97.42
2019-05-10T12:51:21.257Z,98.62
2019-05-10T12:52:23.477Z,98.71
2019-05-10T12:53:21.555Z,94.93
2019-05-10T12:54:23.718Z,95.89